createdAt,value
2018-06-30T00:00:35.324Z,18.99
2018-06-30T00:01:35.272Z,19.06
2018-06-30T00:02:35.308Z,19.08
2018-06-30T00:03:35.296Z,19.08
2018-06-30T00:04:36.190Z,19.04
2018-06-30T00:05:35.331Z,19.11
2018-06-30T00:06:35.337Z,18.98
2018-06-30T00:07:35.291Z,19.07
2018-06-30T00:08:35.296Z,19.04
2018-06-30T00:09:35.394Z,19.13
2018-06-30T00:10:35.296Z,19.08
2018-06-30T00:11:35.299Z,19.04
2018-06-30T00:12:35.344Z,19.11
2018-06-30T00:13:35.325Z,19.04
2018-06-30T00:14:35.329Z,19.04
2018-06-30T00:15:35.345Z,18.98
2018-06-30T00:16:35.317Z,18.91
2018-06-30T00:17:35.324Z,18.95
2018-06-30T00:18:35.334Z,18.94
2018-06-30T00:19:35.354Z,18.98
2018-06-30T00:20:35.333Z,18.95
2018-06-30T00:21:35.331Z,18.98
2018-06-30T00:22:36.196Z,18.99
2018-06-30T00:23:35.381Z,18.94
2018-06-30T00:24:35.377Z,18.98
2018-06-30T00:25:35.346Z,18.94
2018-06-30T00:26:35.360Z,18.95
2018-06-30T00:27:35.355Z,18.94
2018-06-30T00:28:35.391Z,18.91
2018-06-30T00:29:35.378Z,18.92
2018-06-30T00:30:35.408Z,18.85
2018-06-30T00:31:35.378Z,18.91
2018-06-30T00:32:35.376Z,18.81
2018-06-30T00:33:35.390Z,18.81
2018-06-30T00:34:35.420Z,18.80
2018-06-30T00:35:35.485Z,18.81
2018-06-30T00:36:35.405Z,18.80
2018-06-30T00:37:35.413Z,18.73
2018-06-30T00:38:35.391Z,18.70
2018-06-30T00:39:35.398Z,18.78
2018-06-30T00:40:35.412Z,18.80
2018-06-30T00:41:35.433Z,18.80
2018-06-30T00:42:35.405Z,18.75
2018-06-30T00:43:35.415Z,18.73
2018-06-30T00:44:35.402Z,18.82
2018-06-30T00:45:35.413Z,18.76
2018-06-30T00:46:35.442Z,18.70
2018-06-30T00:47:35.414Z,18.72
2018-06-30T00:48:36.251Z,18.67
2018-06-30T00:49:35.450Z,18.76
2018-06-30T00:50:35.443Z,18.72
2018-06-30T00:51:35.459Z,18.69
2018-06-30T00:52:35.456Z,18.69
2018-06-30T00:53:35.452Z,18.69
2018-06-30T00:54:35.471Z,18.63
2018-06-30T00:55:35.471Z,18.66
2018-06-30T00:56:35.443Z,18.55
2018-06-30T00:57:35.479Z,18.65
2018-06-30T00:58:35.459Z,18.62
2018-06-30T00:59:35.466Z,18.65
2018-06-30T01:00:35.464Z,18.51
2018-06-30T01:01:35.474Z,18.54
2018-06-30T01:02:35.481Z,18.62
2018-06-30T01:03:35.545Z,18.52
2018-06-30T01:04:35.471Z,18.47
2018-06-30T01:05:35.496Z,18.54
2018-06-30T01:06:35.513Z,18.48
2018-06-30T01:07:35.482Z,18.51
2018-06-30T01:08:35.483Z,18.57
2018-06-30T01:09:35.489Z,18.50
2018-06-30T01:10:35.505Z,18.51
2018-06-30T01:11:35.495Z,18.51
2018-06-30T01:12:35.497Z,18.54
2018-06-30T01:13:35.513Z,18.55
2018-06-30T01:14:35.513Z,18.47
2018-06-30T01:15:35.536Z,18.52
2018-06-30T01:16:35.612Z,18.52
2018-06-30T01:17:35.534Z,18.58
2018-06-30T01:18:35.514Z,18.51
2018-06-30T01:19:35.541Z,18.51
2018-06-30T01:20:35.525Z,18.47
2018-06-30T01:21:35.522Z,18.48
2018-06-30T01:22:35.557Z,18.45
2018-06-30T01:23:35.566Z,18.47
2018-06-30T01:24:35.583Z,18.37
2018-06-30T01:25:35.642Z,18.39
2018-06-30T01:26:35.561Z,18.41
2018-06-30T01:27:35.569Z,18.42
2018-06-30T01:28:35.548Z,18.39
2018-06-30T01:29:35.546Z,18.37
2018-06-30T01:30:35.615Z,18.35
2018-06-30T01:31:35.574Z,18.32
2018-06-30T01:32:35.565Z,18.27
2018-06-30T01:33:35.557Z,18.21
2018-06-30T01:34:35.571Z,18.25
2018-06-30T01:35:35.566Z,18.25
2018-06-30T01:36:35.589Z,18.36
2018-06-30T01:37:35.567Z,18.36
2018-06-30T01:38:35.590Z,18.29
2018-06-30T01:39:35.572Z,18.32
2018-06-30T01:40:35.607Z,18.36
2018-06-30T01:41:35.593Z,18.32
2018-06-30T01:42:35.611Z,18.35
2018-06-30T01:43:35.608Z,18.21
2018-06-30T01:44:35.616Z,18.25
2018-06-30T01:45:35.619Z,18.30
2018-06-30T01:46:35.643Z,18.26
2018-06-30T01:47:35.615Z,18.36
2018-06-30T01:48:35.651Z,18.32
2018-06-30T01:49:35.632Z,18.32
2018-06-30T01:50:35.619Z,18.39
2018-06-30T01:51:35.690Z,18.27
2018-06-30T01:52:35.653Z,18.27
2018-06-30T01:53:35.642Z,18.30
2018-06-30T01:54:35.622Z,18.35
2018-06-30T01:55:35.644Z,18.39
2018-06-30T01:56:35.626Z,18.27
2018-06-30T01:57:36.236Z,18.27
2018-06-30T01:58:35.634Z,18.30
2018-06-30T01:59:35.659Z,18.30
2018-06-30T02:00:35.662Z,18.26
2018-06-30T02:01:35.670Z,18.27
2018-06-30T02:02:35.647Z,18.23
2018-06-30T02:03:35.656Z,18.29
2018-06-30T02:04:35.667Z,18.33
2018-06-30T02:05:35.663Z,18.23
2018-06-30T02:06:35.681Z,18.23
2018-06-30T02:07:36.240Z,18.26
2018-06-30T02:08:35.692Z,18.23
2018-06-30T02:09:35.694Z,18.27
2018-06-30T02:10:35.676Z,18.21
2018-06-30T02:11:35.700Z,18.23
2018-06-30T02:12:35.684Z,18.23
2018-06-30T02:13:35.684Z,18.15
2018-06-30T02:14:35.722Z,18.25
2018-06-30T02:15:35.700Z,18.20
2018-06-30T02:16:35.707Z,18.20
2018-06-30T02:17:35.714Z,18.20
2018-06-30T02:18:35.709Z,18.20
2018-06-30T02:19:35.703Z,18.25
2018-06-30T02:20:36.244Z,18.26
2018-06-30T02:21:35.708Z,18.27
2018-06-30T02:22:35.707Z,18.26
2018-06-30T02:23:35.724Z,18.32
2018-06-30T02:24:35.746Z,18.21
2018-06-30T02:25:35.762Z,18.30
2018-06-30T02:26:35.758Z,18.35
2018-06-30T02:27:35.737Z,18.39
2018-06-30T02:28:35.721Z,18.32
2018-06-30T02:29:35.742Z,18.37
2018-06-30T02:30:35.737Z,18.35
2018-06-30T02:31:35.739Z,18.42
2018-06-30T02:32:35.738Z,18.42
2018-06-30T02:33:35.776Z,18.39
2018-06-30T02:34:35.791Z,18.37
2018-06-30T02:35:35.750Z,18.37
2018-06-30T02:36:35.768Z,18.41
2018-06-30T02:37:35.768Z,18.36
2018-06-30T02:38:35.756Z,18.33
2018-06-30T02:39:35.765Z,18.36
2018-06-30T02:40:35.800Z,18.42
2018-06-30T02:41:35.794Z,18.42
2018-06-30T02:42:35.771Z,18.36
2018-06-30T02:43:36.753Z,18.36
2018-06-30T02:44:35.769Z,18.30
2018-06-30T02:45:35.790Z,18.33
2018-06-30T02:46:35.787Z,18.36
2018-06-30T02:47:35.795Z,18.36
2018-06-30T02:48:35.888Z,18.32
2018-06-30T02:49:35.787Z,18.42
2018-06-30T02:50:35.798Z,18.41
2018-06-30T02:51:35.803Z,18.33
2018-06-30T02:52:35.796Z,18.33
2018-06-30T02:53:35.808Z,18.37
2018-06-30T02:54:35.825Z,18.36
2018-06-30T02:55:35.845Z,18.35
2018-06-30T02:56:35.859Z,18.36
2018-06-30T02:57:35.808Z,18.36
2018-06-30T02:58:35.809Z,18.36
2018-06-30T02:59:35.825Z,18.32
2018-06-30T03:00:35.850Z,18.37
2018-06-30T03:01:35.864Z,18.35
2018-06-30T03:02:35.846Z,18.35
2018-06-30T03:03:35.837Z,18.33
2018-06-30T03:04:35.842Z,18.42
2018-06-30T03:05:35.860Z,18.36
2018-06-30T03:06:35.841Z,18.39
2018-06-30T03:07:35.845Z,18.30
2018-06-30T03:08:35.853Z,18.29
2018-06-30T03:09:35.878Z,18.30
2018-06-30T03:10:35.854Z,18.30
2018-06-30T03:11:35.852Z,18.26
2018-06-30T03:12:35.870Z,18.26
2018-06-30T03:13:35.858Z,18.20
2018-06-30T03:14:35.925Z,18.25
2018-06-30T03:15:35.896Z,18.18
2018-06-30T03:16:35.876Z,18.21
2018-06-30T03:17:35.897Z,18.27
2018-06-30T03:18:35.900Z,18.10
2018-06-30T03:19:35.874Z,18.14
2018-06-30T03:20:35.944Z,18.12
2018-06-30T03:21:35.909Z,18.17
2018-06-30T03:22:35.898Z,18.11
2018-06-30T03:23:35.907Z,18.18
2018-06-30T03:24:36.767Z,18.27
2018-06-30T03:25:35.916Z,18.23
2018-06-30T03:26:35.909Z,18.25
2018-06-30T03:27:35.923Z,18.23
2018-06-30T03:28:35.916Z,18.17
2018-06-30T03:29:35.934Z,18.17
2018-06-30T03:30:35.942Z,18.21
2018-06-30T03:31:35.999Z,18.26
2018-06-30T03:32:35.944Z,18.32
2018-06-30T03:33:35.915Z,18.36
2018-06-30T03:34:35.924Z,18.33
2018-06-30T03:35:35.942Z,18.30
2018-06-30T03:36:35.922Z,18.39
2018-06-30T03:37:35.942Z,18.33
2018-06-30T03:38:36.002Z,18.39
2018-06-30T03:39:35.931Z,18.42
2018-06-30T03:40:35.957Z,18.47
2018-06-30T03:41:35.961Z,18.42
2018-06-30T03:42:36.020Z,18.47
2018-06-30T03:43:35.945Z,18.51
2018-06-30T03:44:35.991Z,18.44
2018-06-30T03:45:35.980Z,18.44
2018-06-30T03:46:35.965Z,18.52
2018-06-30T03:47:35.979Z,18.54
2018-06-30T03:48:35.974Z,18.50
2018-06-30T03:49:35.970Z,18.58
2018-06-30T03:50:35.986Z,18.70
2018-06-30T03:51:35.993Z,18.57
2018-06-30T03:52:35.988Z,18.60
2018-06-30T03:53:35.994Z,18.54
2018-06-30T03:54:36.001Z,18.62
2018-06-30T03:55:36.098Z,18.57
2018-06-30T03:56:36.007Z,18.52
2018-06-30T03:57:35.990Z,18.70
2018-06-30T03:58:35.995Z,18.65
2018-06-30T03:59:35.999Z,18.60
2018-06-30T04:00:36.018Z,18.67
2018-06-30T04:01:36.005Z,18.72
2018-06-30T04:02:36.003Z,18.67
2018-06-30T04:03:36.015Z,18.67
2018-06-30T04:04:36.005Z,18.78
2018-06-30T04:05:36.044Z,18.88
2018-06-30T04:06:36.016Z,18.88
2018-06-30T04:07:36.020Z,18.92
2018-06-30T04:08:36.111Z,18.94
2018-06-30T04:09:36.030Z,18.98
2018-06-30T04:10:36.047Z,18.94
2018-06-30T04:11:36.041Z,18.99
2018-06-30T04:12:36.076Z,18.94
2018-06-30T04:13:36.044Z,19.07
2018-06-30T04:14:36.069Z,19.06
2018-06-30T04:15:36.066Z,19.19
2018-06-30T04:16:36.049Z,19.11
2018-06-30T04:17:36.079Z,19.19
2018-06-30T04:18:36.046Z,19.16
2018-06-30T04:19:36.076Z,19.07
2018-06-30T04:20:36.085Z,19.06
2018-06-30T04:21:36.057Z,19.08
2018-06-30T04:22:36.098Z,19.07
2018-06-30T04:23:36.069Z,19.06
2018-06-30T04:24:36.868Z,19.07
2018-06-30T04:25:36.188Z,19.18
2018-06-30T04:26:36.072Z,19.06
2018-06-30T04:27:36.086Z,19.10
2018-06-30T04:28:36.110Z,19.10
2018-06-30T04:29:36.083Z,19.10
2018-06-30T04:30:36.092Z,19.10
2018-06-30T04:31:36.093Z,19.08
2018-06-30T04:32:36.121Z,18.98
2018-06-30T04:33:36.107Z,18.99
2018-06-30T04:34:36.102Z,19.06
2018-06-30T04:35:36.102Z,18.99
2018-06-30T04:36:36.195Z,18.92
2018-06-30T04:37:36.137Z,18.99
2018-06-30T04:38:36.118Z,18.98
2018-06-30T04:39:36.115Z,18.87
2018-06-30T04:40:36.166Z,18.95
2018-06-30T04:41:36.150Z,18.99
2018-06-30T04:42:36.214Z,18.87
2018-06-30T04:43:36.133Z,18.98
2018-06-30T04:44:36.138Z,18.91
2018-06-30T04:45:36.130Z,18.95
2018-06-30T04:46:36.175Z,18.98
2018-06-30T04:47:36.140Z,19.07
2018-06-30T04:48:36.150Z,19.07
2018-06-30T04:49:36.157Z,19.02
2018-06-30T04:50:36.159Z,18.98
2018-06-30T04:51:36.156Z,18.95
2018-06-30T04:52:36.162Z,19.02
2018-06-30T04:53:36.153Z,19.06
2018-06-30T04:54:36.170Z,19.02
2018-06-30T04:55:36.166Z,19.16
2018-06-30T04:56:36.169Z,19.21
2018-06-30T04:57:36.195Z,19.25
2018-06-30T04:58:36.169Z,19.29
2018-06-30T04:59:36.175Z,19.19
2018-06-30T05:00:36.208Z,19.28
2018-06-30T05:01:36.526Z,19.28
2018-06-30T05:02:36.206Z,19.41
2018-06-30T05:03:36.221Z,19.23
2018-06-30T05:04:36.201Z,19.21
2018-06-30T05:05:36.211Z,19.21
2018-06-30T05:06:36.194Z,19.28
2018-06-30T05:07:36.205Z,19.39
2018-06-30T05:08:36.220Z,19.41
2018-06-30T05:09:36.218Z,19.83
2018-06-30T05:10:36.223Z,20.54
2018-06-30T05:11:36.233Z,21.64
2018-06-30T05:12:36.316Z,22.67
2018-06-30T05:13:36.248Z,23.46
2018-06-30T05:14:36.242Z,24.28
2018-06-30T05:15:36.229Z,24.47
2018-06-30T05:16:36.240Z,24.43
2018-06-30T05:17:36.232Z,24.78
2018-06-30T05:18:36.248Z,24.61
2018-06-30T05:19:36.266Z,24.96
2018-06-30T05:20:36.245Z,24.98
2018-06-30T05:21:36.267Z,25.69
2018-06-30T05:22:36.249Z,25.65
2018-06-30T05:23:36.270Z,25.13
2018-06-30T05:24:36.265Z,26.02
2018-06-30T05:25:36.274Z,26.55
2018-06-30T05:26:36.282Z,25.83
2018-06-30T05:27:36.302Z,25.91
2018-06-30T05:28:36.290Z,26.58
2018-06-30T05:29:36.290Z,26.39
2018-06-30T05:30:36.316Z,26.62
2018-06-30T05:31:36.297Z,26.54
2018-06-30T05:32:36.315Z,27.24
2018-06-30T05:33:36.372Z,26.84
2018-06-30T05:34:36.325Z,26.97
2018-06-30T05:35:36.335Z,25.50
2018-06-30T05:36:36.345Z,25.10
2018-06-30T05:37:36.354Z,25.08
2018-06-30T05:38:36.333Z,24.47
2018-06-30T05:39:36.396Z,24.37
2018-06-30T05:40:36.821Z,24.67
2018-06-30T05:41:36.357Z,24.31
2018-06-30T05:42:36.361Z,24.47
2018-06-30T05:43:36.378Z,24.90
2018-06-30T05:44:36.368Z,24.95
2018-06-30T05:45:36.375Z,25.27
2018-06-30T05:46:36.378Z,26.39
2018-06-30T05:47:36.396Z,26.32
2018-06-30T05:48:36.428Z,26.07
2018-06-30T05:49:36.416Z,26.23
2018-06-30T05:50:36.435Z,26.13
2018-06-30T05:51:36.457Z,26.39
2018-06-30T05:52:36.432Z,26.07
2018-06-30T05:53:36.524Z,26.54
2018-06-30T05:54:36.453Z,27.41
2018-06-30T05:55:36.448Z,26.84
2018-06-30T05:56:36.441Z,26.29
2018-06-30T05:57:36.500Z,27.03
2018-06-30T05:58:36.481Z,27.88
2018-06-30T05:59:36.466Z,28.48
2018-06-30T06:00:36.521Z,27.60
2018-06-30T06:01:36.510Z,27.75
2018-06-30T06:02:36.498Z,27.19
2018-06-30T06:03:36.565Z,27.07
2018-06-30T06:04:36.503Z,27.49
2018-06-30T06:05:36.517Z,27.03
2018-06-30T06:06:36.559Z,27.62
2018-06-30T06:07:36.532Z,27.06
2018-06-30T06:08:36.553Z,27.10
2018-06-30T06:09:36.621Z,27.55
2018-06-30T06:10:36.566Z,27.46
2018-06-30T06:11:36.572Z,27.79
2018-06-30T06:12:36.597Z,27.93
2018-06-30T06:13:36.610Z,27.67
2018-06-30T06:14:36.597Z,28.19
2018-06-30T06:15:36.614Z,28.85
2018-06-30T06:16:36.633Z,28.62
2018-06-30T06:17:36.637Z,28.92
2018-06-30T06:18:36.625Z,29.21
2018-06-30T06:19:36.669Z,29.55
2018-06-30T06:20:36.666Z,29.70
2018-06-30T06:21:36.693Z,28.93
2018-06-30T06:22:36.727Z,29.09
2018-06-30T06:23:36.697Z,29.49
2018-06-30T06:24:36.728Z,28.71
2018-06-30T06:25:36.714Z,28.83
2018-06-30T06:26:36.735Z,28.86
2018-06-30T06:27:36.793Z,27.75
2018-06-30T06:28:36.729Z,28.64
2018-06-30T06:29:36.740Z,28.40
2018-06-30T06:30:36.759Z,28.25
2018-06-30T06:31:36.783Z,27.72
2018-06-30T06:32:36.807Z,27.22
2018-06-30T06:33:36.800Z,26.51
2018-06-30T06:34:36.785Z,26.66
2018-06-30T06:35:36.819Z,27.24
2018-06-30T06:36:36.853Z,25.91
2018-06-30T06:37:36.839Z,25.87
2018-06-30T06:38:36.841Z,26.23
2018-06-30T06:39:36.859Z,26.60
2018-06-30T06:40:36.854Z,27.37
2018-06-30T06:41:36.919Z,27.10
2018-06-30T06:42:36.873Z,27.96
2018-06-30T06:43:36.922Z,28.41
2018-06-30T06:44:36.901Z,28.55
2018-06-30T06:45:36.954Z,29.15
2018-06-30T06:46:36.929Z,29.82
2018-06-30T06:47:36.950Z,30.07
2018-06-30T06:48:36.953Z,30.77
2018-06-30T06:49:36.964Z,29.30
2018-06-30T06:50:36.991Z,28.61
2018-06-30T06:51:37.045Z,28.43
2018-06-30T06:52:36.989Z,27.99
2018-06-30T06:53:37.012Z,28.52
2018-06-30T06:54:37.034Z,27.97
2018-06-30T06:55:37.050Z,27.40
2018-06-30T06:56:37.044Z,28.18
2018-06-30T06:57:37.101Z,27.96
2018-06-30T06:58:37.069Z,28.43
2018-06-30T06:59:37.083Z,29.16
2018-06-30T07:00:37.088Z,29.86
2018-06-30T07:01:37.878Z,30.20
2018-06-30T07:02:37.119Z,28.93
2018-06-30T07:03:37.140Z,29.51
2018-06-30T07:04:37.160Z,30.10
2018-06-30T07:05:37.143Z,29.61
2018-06-30T07:06:37.185Z,29.52
2018-06-30T07:07:37.187Z,28.70
2018-06-30T07:08:37.193Z,29.09
2018-06-30T07:09:37.214Z,28.54
2018-06-30T07:10:37.226Z,28.61
2018-06-30T07:11:37.243Z,28.62
2018-06-30T07:12:37.241Z,28.59
2018-06-30T07:13:37.263Z,27.50
2018-06-30T07:14:37.305Z,26.87
2018-06-30T07:15:37.308Z,26.77
2018-06-30T07:16:37.304Z,26.94
2018-06-30T07:17:37.320Z,27.41
2018-06-30T07:18:37.325Z,28.00
2018-06-30T07:19:37.352Z,27.54
2018-06-30T07:20:37.410Z,28.17
2018-06-30T07:21:37.364Z,28.93
2018-06-30T07:22:37.464Z,28.90
2018-06-30T07:23:37.422Z,27.60
2018-06-30T07:24:37.442Z,27.69
2018-06-30T07:25:37.480Z,28.12
2018-06-30T07:26:37.501Z,28.49
2018-06-30T07:27:37.495Z,28.89
2018-06-30T07:28:37.509Z,28.06
2018-06-30T07:29:37.499Z,27.55
2018-06-30T07:30:37.508Z,27.93
2018-06-30T07:31:37.512Z,28.27
2018-06-30T07:32:37.523Z,28.98
2018-06-30T07:33:37.540Z,28.96
2018-06-30T07:34:37.548Z,28.95
2018-06-30T07:35:37.578Z,27.88
2018-06-30T07:36:37.674Z,27.62
2018-06-30T07:37:37.610Z,28.06
2018-06-30T07:38:37.634Z,28.92
2018-06-30T07:39:37.635Z,28.48
2018-06-30T07:40:37.676Z,28.39
2018-06-30T07:41:37.665Z,27.87
2018-06-30T07:42:37.696Z,28.41
2018-06-30T07:43:37.716Z,29.15
2018-06-30T07:44:37.699Z,28.66
2018-06-30T07:45:37.804Z,28.70
2018-06-30T07:46:37.738Z,28.43
2018-06-30T07:47:37.752Z,28.48
2018-06-30T07:48:37.761Z,29.33
2018-06-30T07:49:37.822Z,28.89
2018-06-30T07:50:37.786Z,27.96
2018-06-30T07:51:37.824Z,28.18
2018-06-30T07:52:37.834Z,27.75
2018-06-30T07:53:37.842Z,27.12
2018-06-30T07:54:37.855Z,28.34
2018-06-30T07:55:37.913Z,27.96
2018-06-30T07:56:37.892Z,27.69
2018-06-30T07:57:37.904Z,29.09
2018-06-30T07:58:37.902Z,29.61
2018-06-30T07:59:37.950Z,29.34
2018-06-30T08:00:37.942Z,29.21
2018-06-30T08:01:37.977Z,29.39
2018-06-30T08:02:37.977Z,28.19
2018-06-30T08:03:38.023Z,27.57
2018-06-30T08:04:38.020Z,27.96
2018-06-30T08:05:38.041Z,28.93
2018-06-30T08:06:38.058Z,28.21
2018-06-30T08:07:38.066Z,28.49
2018-06-30T08:08:38.080Z,29.86
2018-06-30T08:09:38.110Z,29.89
2018-06-30T08:10:38.102Z,30.43
2018-06-30T08:11:38.170Z,29.78
2018-06-30T08:12:38.139Z,28.29
2018-06-30T08:13:38.214Z,28.74
2018-06-30T08:14:38.192Z,28.73
2018-06-30T08:15:38.214Z,28.34
2018-06-30T08:16:38.211Z,28.33
2018-06-30T08:17:38.235Z,28.44
2018-06-30T08:18:38.358Z,28.27
2018-06-30T08:19:38.254Z,27.22
2018-06-30T08:20:38.407Z,27.99
2018-06-30T08:21:38.290Z,28.90
2018-06-30T08:22:38.361Z,29.05
2018-06-30T08:23:38.332Z,29.60
2018-06-30T08:24:38.364Z,30.26
2018-06-30T08:25:38.367Z,29.33
2018-06-30T08:26:38.397Z,30.10
2018-06-30T08:27:38.445Z,30.91
2018-06-30T08:28:38.507Z,31.46
2018-06-30T08:29:38.575Z,32.45
2018-06-30T08:30:38.449Z,32.72
2018-06-30T08:31:38.507Z,32.41
2018-06-30T08:32:38.484Z,32.23
2018-06-30T08:33:38.535Z,31.61
2018-06-30T08:34:38.538Z,31.20
2018-06-30T08:35:38.562Z,31.34
2018-06-30T08:36:38.583Z,30.97
2018-06-30T08:37:38.586Z,30.07
2018-06-30T08:38:38.619Z,29.95
2018-06-30T08:39:38.616Z,29.63
2018-06-30T08:40:38.662Z,28.98
2018-06-30T08:41:38.676Z,29.53
2018-06-30T08:42:38.712Z,30.23
2018-06-30T08:43:38.678Z,29.95
2018-06-30T08:44:38.772Z,30.45
2018-06-30T08:45:38.735Z,31.48
2018-06-30T08:46:38.752Z,30.64
2018-06-30T08:47:38.774Z,29.65
2018-06-30T08:48:38.795Z,29.85
2018-06-30T08:49:38.814Z,30.27
2018-06-30T08:50:38.831Z,29.95
2018-06-30T08:51:38.858Z,28.59
2018-06-30T08:52:38.868Z,29.04
2018-06-30T08:53:38.899Z,29.33
2018-06-30T08:54:38.926Z,29.71
2018-06-30T08:55:38.998Z,29.61
2018-06-30T08:56:38.930Z,29.46
2018-06-30T08:57:39.003Z,29.68
2018-06-30T08:58:39.022Z,30.47
2018-06-30T08:59:38.996Z,30.91
2018-06-30T09:00:39.143Z,29.89
2018-06-30T09:01:39.033Z,29.63
2018-06-30T09:02:39.104Z,29.70
2018-06-30T09:03:39.153Z,29.85
2018-06-30T09:04:39.089Z,29.33
2018-06-30T09:05:39.186Z,30.58
2018-06-30T09:06:39.209Z,30.67
2018-06-30T09:07:39.193Z,30.22
2018-06-30T09:08:39.175Z,29.00
2018-06-30T09:09:39.211Z,28.98
2018-06-30T09:10:39.269Z,28.22
2018-06-30T09:11:39.253Z,28.48
2018-06-30T09:12:39.528Z,28.48
2018-06-30T09:13:39.270Z,28.66
2018-06-30T09:14:39.291Z,29.14
2018-06-30T09:15:39.304Z,29.52
2018-06-30T09:16:39.336Z,30.05
2018-06-30T09:17:39.383Z,29.57
2018-06-30T09:18:39.390Z,30.07
2018-06-30T09:19:39.428Z,29.73
2018-06-30T09:20:39.417Z,30.34
2018-06-30T09:21:39.458Z,30.55
2018-06-30T09:22:39.485Z,30.46
2018-06-30T09:23:39.497Z,30.99
2018-06-30T09:24:39.590Z,31.54
2018-06-30T09:25:39.528Z,30.91
2018-06-30T09:26:39.542Z,30.84
2018-06-30T09:27:39.638Z,30.51
2018-06-30T09:28:39.578Z,30.99
2018-06-30T09:29:39.686Z,30.73
2018-06-30T09:30:39.911Z,31.58
2018-06-30T09:31:39.645Z,32.35
2018-06-30T09:32:39.710Z,32.37
2018-06-30T09:33:39.688Z,31.73
2018-06-30T09:34:39.748Z,32.75
2018-06-30T09:35:39.740Z,33.76
2018-06-30T09:36:39.911Z,32.75
2018-06-30T09:37:39.926Z,31.34
2018-06-30T09:38:39.815Z,30.82
2018-06-30T09:39:39.859Z,30.83
2018-06-30T09:40:39.903Z,30.43
2018-06-30T09:41:40.006Z,30.65
2018-06-30T09:42:40.106Z,31.34
2018-06-30T09:43:40.080Z,31.56
2018-06-30T09:44:47.834Z,31.32
2018-06-30T09:45:39.936Z,30.82
2018-06-30T09:46:39.957Z,30.39
2018-06-30T09:47:40.034Z,30.65
2018-06-30T09:48:40.038Z,31.41
2018-06-30T09:49:41.143Z,31.43
2018-06-30T09:50:40.063Z,31.34
2018-06-30T09:51:40.124Z,29.51
2018-06-30T09:52:40.145Z,29.26
2018-06-30T09:53:40.179Z,28.71
2018-06-30T09:54:40.145Z,29.41
2018-06-30T09:55:40.227Z,29.37
2018-06-30T09:56:40.266Z,29.70
2018-06-30T09:57:40.228Z,29.94
2018-06-30T09:58:40.298Z,30.37
2018-06-30T09:59:41.149Z,30.39
2018-06-30T10:00:40.490Z,29.74
2018-06-30T10:01:40.798Z,30.49
2018-06-30T10:02:40.446Z,29.61
2018-06-30T10:03:40.369Z,28.55
2018-06-30T10:04:40.376Z,28.67
2018-06-30T10:05:40.449Z,29.39
2018-06-30T10:06:40.458Z,29.85
2018-06-30T10:07:40.482Z,30.27
2018-06-30T10:08:40.488Z,30.83
2018-06-30T10:09:40.514Z,31.19
2018-06-30T10:10:40.545Z,30.35
2018-06-30T10:11:40.539Z,29.16
2018-06-30T10:12:40.561Z,29.70
2018-06-30T10:13:40.584Z,29.58
2018-06-30T10:14:40.626Z,29.31
2018-06-30T10:15:40.607Z,30.07
2018-06-30T10:16:41.495Z,29.49
2018-06-30T10:17:40.718Z,29.00
2018-06-30T10:18:40.730Z,29.83
2018-06-30T10:19:40.695Z,29.51
2018-06-30T10:20:40.709Z,30.27
2018-06-30T10:21:40.746Z,30.79
2018-06-30T10:22:40.775Z,30.24
2018-06-30T10:23:40.820Z,30.47
2018-06-30T10:24:40.835Z,30.24
2018-06-30T10:25:40.829Z,31.36
2018-06-30T10:26:41.501Z,31.28
2018-06-30T10:27:40.896Z,31.99
2018-06-30T10:28:41.098Z,31.66
2018-06-30T10:29:41.519Z,31.10
2018-06-30T10:30:40.938Z,30.88
2018-06-30T10:31:40.964Z,30.16
2018-06-30T10:32:41.726Z,29.65
2018-06-30T10:33:41.107Z,29.28
2018-06-30T10:34:41.029Z,29.57
2018-06-30T10:35:41.035Z,29.08
2018-06-30T10:36:41.036Z,28.89
2018-06-30T10:37:41.095Z,29.57
2018-06-30T10:38:42.034Z,30.37
2018-06-30T10:39:41.131Z,30.76
2018-06-30T10:40:41.123Z,29.58
2018-06-30T10:41:41.134Z,28.17
2018-06-30T10:42:41.243Z,28.24
2018-06-30T10:43:41.280Z,27.49
2018-06-30T10:44:41.381Z,27.00
2018-06-30T10:45:41.263Z,26.91
2018-06-30T10:46:41.292Z,27.25
2018-06-30T10:47:41.276Z,26.95
2018-06-30T10:48:41.391Z,26.55
2018-06-30T10:49:41.304Z,26.58
2018-06-30T10:50:41.310Z,26.70
2018-06-30T10:51:41.350Z,27.43
2018-06-30T10:52:41.317Z,27.51
2018-06-30T10:53:41.351Z,27.90
2018-06-30T10:54:41.351Z,27.77
2018-06-30T10:55:41.401Z,28.06
2018-06-30T10:56:41.376Z,27.92
2018-06-30T10:57:41.384Z,27.44
2018-06-30T10:58:42.021Z,27.72
2018-06-30T10:59:41.417Z,27.43
2018-06-30T11:00:41.432Z,27.36
2018-06-30T11:01:41.485Z,27.36
2018-06-30T11:02:41.463Z,27.18
2018-06-30T11:03:41.471Z,26.89
2018-06-30T11:04:41.652Z,26.80
2018-06-30T11:05:41.481Z,26.80
2018-06-30T11:06:41.488Z,26.88
2018-06-30T11:07:41.520Z,26.84
2018-06-30T11:08:42.029Z,26.57
2018-06-30T11:09:41.522Z,26.72
2018-06-30T11:10:41.564Z,26.62
2018-06-30T11:11:41.556Z,26.77
2018-06-30T11:12:41.617Z,26.54
2018-06-30T11:13:41.593Z,26.62
2018-06-30T11:14:41.589Z,26.37
2018-06-30T11:15:41.604Z,26.55
2018-06-30T11:16:41.645Z,26.84
2018-06-30T11:17:41.718Z,26.85
2018-06-30T11:18:41.605Z,26.81
2018-06-30T11:19:41.641Z,26.76
2018-06-30T11:20:41.641Z,26.55
2018-06-30T11:21:41.642Z,26.51
2018-06-30T11:22:41.677Z,26.91
2018-06-30T11:23:41.664Z,26.99
2018-06-30T11:24:41.664Z,26.89
2018-06-30T11:25:41.759Z,27.13
2018-06-30T11:26:41.713Z,27.39
2018-06-30T11:27:41.717Z,27.25
2018-06-30T11:28:41.787Z,26.99
2018-06-30T11:29:41.726Z,27.04
2018-06-30T11:30:41.720Z,27.13
2018-06-30T11:31:41.753Z,26.82
2018-06-30T11:32:41.792Z,26.47
2018-06-30T11:33:41.749Z,26.55
2018-06-30T11:34:41.757Z,26.60
2018-06-30T11:35:41.768Z,26.65
2018-06-30T11:36:41.770Z,26.72
2018-06-30T11:37:41.782Z,26.99
2018-06-30T11:38:41.813Z,27.17
2018-06-30T11:39:41.819Z,27.32
2018-06-30T11:40:41.866Z,27.59
2018-06-30T11:41:41.805Z,27.46
2018-06-30T11:42:41.818Z,27.60
2018-06-30T11:43:41.831Z,27.59
2018-06-30T11:44:41.888Z,27.17
2018-06-30T11:45:41.845Z,26.70
2018-06-30T11:46:41.910Z,26.50
2018-06-30T11:47:41.882Z,26.65
2018-06-30T11:48:41.875Z,26.52
2018-06-30T11:49:41.877Z,26.89
2018-06-30T11:50:41.922Z,27.09
2018-06-30T11:52:41.998Z,27.47
2018-06-30T11:53:41.934Z,27.51
2018-06-30T11:54:41.936Z,27.44
2018-06-30T11:55:41.927Z,27.39
2018-06-30T11:56:41.935Z,26.95
2018-06-30T11:57:41.951Z,26.91
2018-06-30T11:58:41.955Z,26.92
2018-06-30T11:59:41.967Z,26.75
2018-06-30T12:00:41.969Z,27.09
2018-06-30T12:01:41.956Z,27.06
2018-06-30T12:02:41.974Z,26.84
2018-06-30T12:03:41.994Z,27.00
2018-06-30T12:04:42.004Z,26.60
2018-06-30T12:05:42.031Z,26.65
2018-06-30T12:06:42.004Z,26.76
2018-06-30T12:07:42.020Z,27.03
2018-06-30T12:08:42.026Z,27.10
2018-06-30T12:09:42.050Z,27.03
2018-06-30T12:10:42.048Z,27.22
2018-06-30T12:11:42.045Z,27.69
2018-06-30T12:12:42.048Z,27.90
2018-06-30T12:13:42.068Z,27.72
2018-06-30T12:14:42.072Z,27.65
2018-06-30T12:15:42.066Z,27.41
2018-06-30T12:16:42.076Z,27.51
2018-06-30T12:17:42.080Z,27.96
2018-06-30T12:18:42.090Z,27.78
2018-06-30T12:19:42.095Z,27.65
2018-06-30T12:20:42.112Z,27.70
2018-06-30T12:21:42.160Z,27.51
2018-06-30T12:22:42.176Z,27.18
2018-06-30T12:23:42.137Z,27.13
2018-06-30T12:24:42.210Z,27.03
2018-06-30T12:25:42.156Z,27.18
2018-06-30T12:26:42.172Z,27.31
2018-06-30T12:27:42.162Z,27.62
2018-06-30T12:28:42.171Z,27.65
2018-06-30T12:29:42.195Z,27.41
2018-06-30T12:30:42.195Z,27.65
2018-06-30T12:31:42.215Z,27.79
2018-06-30T12:32:42.196Z,27.60
2018-06-30T12:33:42.266Z,27.13
2018-06-30T12:34:43.076Z,26.82
2018-06-30T12:35:42.222Z,26.72
2018-06-30T12:36:42.311Z,26.95
2018-06-30T12:37:42.224Z,27.09
2018-06-30T12:38:42.228Z,27.07
2018-06-30T12:39:42.256Z,26.89
2018-06-30T12:40:42.256Z,27.13
2018-06-30T12:41:42.265Z,27.40
2018-06-30T12:42:42.285Z,27.41
2018-06-30T12:43:42.295Z,27.46
2018-06-30T12:44:42.294Z,27.41
2018-06-30T12:45:42.301Z,27.39
2018-06-30T12:46:42.312Z,26.84
2018-06-30T12:47:42.350Z,26.58
2018-06-30T12:48:42.359Z,26.50
2018-06-30T12:49:42.356Z,26.76
2018-06-30T12:50:42.351Z,26.89
2018-06-30T12:51:42.353Z,27.06
2018-06-30T12:52:42.340Z,27.36
2018-06-30T12:53:42.346Z,27.06